PWSweather.com
Personal Weather Stations
Station Observations
WESTON01
WestonSuperMareGB BS22 8RT

WestonSuperMareGB BS22 8RT

Lat: 51.351508, Lon: -2.933373

Elevation: 15

Station Type: Fine Offset WH1080

http://www.westonweather.co.uk

High Low Average
Temperature 62.9°F17.2°C 53.7°F12.1°C 58.5°F14.7°C
Dew Point 57.4°F14.1°C 49.0°F9.4°C 53.3°F11.8°C
Winds 14.7 mph 23.7 kmh Calm Calm 7.0 mph S11.3 kmh S
Wind Gusts 25.6 mph41.2 kmh -- 11.0 mph17.7 kmh
Humidity 87% 75% 83%
Pressure 29.65 in1004.1 mb 29.47 in998.0 mb -
Precipitation 0.00 in0.0 mm - -
Hour Temp Dew Point Humidity Winds Wind Gusts Pressure Precip Precip Rate Daily Precip Total
12:00 AM 60.0°F15.6°C 52.0°F11.1°C 75% 1.9 mph E3.1 kmh E 3.9 mph6.3 kmh 29.56 in1001.0 mb 0.00 in0.0 mm 0.00 in0.0 mm 0.00 in0.0 mm
12:05 AM 60.0°F15.6°C 52.4°F11.3°C 76% 2.2 mph ESE3.5 kmh ESE 3.6 mph5.8 kmh 29.56 in1001.0 mb 0.00 in0.0 mm 0.00 in0.0 mm 0.00 in0.0 mm
12:10 AM 60.0°F15.6°C 52.4°F11.3°C 76% 2.1 mph ESE3.4 kmh ESE 3.6 mph5.8 kmh 29.56 in1001.0 mb 0.00 in0.0 mm 0.00 in0.0 mm 0.00 in0.0 mm
12:15 AM 60.2°F15.7°C 52.6°F11.4°C 76% 2.2 mph SE3.5 kmh SE 5.1 mph8.2 kmh 29.56 in1001.0 mb 0.00 in0.0 mm 0.00 in0.0 mm 0.00 in0.0 mm
12:20 AM 60.2°F15.7°C 52.9°F11.6°C 77% 2.8 mph SE4.5 kmh SE 5.1 mph8.2 kmh 29.56 in1001.0 mb 0.00 in0.0 mm 0.00 in0.0 mm 0.00 in0.0 mm
12:25 AM 60.3°F15.7°C 53.1°F11.7°C 77% 3.2 mph SE5.1 kmh SE 5.1 mph8.2 kmh 29.56 in1001.0 mb 0.00 in0.0 mm 0.00 in0.0 mm 0.00 in0.0 mm
12:30 AM 60.5°F15.8°C 53.3°F11.8°C 77% 4.1 mph SE6.6 kmh SE 6.5 mph10.5 kmh 29.56 in1001.0 mb 0.00 in0.0 mm 0.00 in0.0 mm 0.00 in0.0 mm
12:35 AM 60.7°F15.9°C 53.5°F11.9°C 77% 5.6 mph SSE9.0 kmh SSE 8.9 mph14.3 kmh 29.56 in1001.0 mb 0.00 in0.0 mm 0.00 in0.0 mm 0.00 in0.0 mm
12:40 AM 60.7°F15.9°C 53.5°F11.9°C 77% 5.2 mph S8.4 kmh S 8.9 mph14.3 kmh 29.56 in1001.0 mb 0.00 in0.0 mm 0.00 in0.0 mm 0.00 in0.0 mm
12:45 AM 60.7°F15.9°C 53.5°F11.9°C 77% 6.2 mph S10.0 kmh S 12.8 mph20.6 kmh 29.56 in1001.0 mb 0.00 in0.0 mm 0.00 in0.0 mm 0.00 in0.0 mm
12:50 AM 60.7°F15.9°C 53.8°F12.1°C 78% 7.6 mph S12.2 kmh S 12.8 mph20.6 kmh 29.56 in1001.0 mb 0.00 in0.0 mm 0.00 in0.0 mm 0.00 in0.0 mm
12:55 AM 60.7°F15.9°C 54.2°F12.3°C 79% 6.3 mph SSW10.1 kmh SSW 12.8 mph20.6 kmh 29.56 in1001.0 mb 0.00 in0.0 mm 0.00 in0.0 mm 0.00 in0.0 mm
01:00 AM 60.5°F15.8°C 54.0°F12.2°C 79% 4.5 mph S7.2 kmh S 7.1 mph11.4 kmh 29.56 in1001.0 mb 0.00 in0.0 mm 0.00 in0.0 mm 0.00 in0.0 mm
01:05 AM 60.5°F15.8°C 54.0°F12.2°C 79% 4.8 mph S7.7 kmh S 9.5 mph15.3 kmh 29.56 in1001.0 mb 0.00 in0.0 mm 0.00 in0.0 mm 0.00 in0.0 mm
01:10 AM 60.3°F15.7°C 53.8°F12.1°C 79% 6.1 mph S9.8 kmh S 9.5 mph15.3 kmh 29.56 in1001.0 mb 0.00 in0.0 mm 0.00 in0.0 mm 0.00 in0.0 mm
01:15 AM 60.2°F15.7°C 54.0°F12.2°C 80% 6.2 mph S10.0 kmh S 9.5 mph15.3 kmh 29.56 in1001.0 mb 0.00 in0.0 mm 0.00 in0.0 mm 0.00 in0.0 mm
01:20 AM 60.2°F15.7°C 54.0°F12.2°C 80% 5.7 mph S9.2 kmh S 9.5 mph15.3 kmh 29.56 in1001.0 mb 0.00 in0.0 mm 0.00 in0.0 mm 0.00 in0.0 mm
01:25 AM 60.2°F15.7°C 54.0°F12.2°C 80% 6.0 mph S9.7 kmh S 10.4 mph16.7 kmh 29.56 in1001.0 mb 0.00 in0.0 mm 0.00 in0.0 mm 0.00 in0.0 mm
01:30 AM 60.0°F15.6°C 53.8°F12.1°C 80% 7.0 mph S11.3 kmh S 11.3 mph18.2 kmh 29.56 in1001.0 mb 0.00 in0.0 mm 0.00 in0.0 mm 0.00 in0.0 mm
01:35 AM 59.8°F15.4°C 53.6°F12.0°C 80% 8.9 mph S14.3 kmh S 13.4 mph21.6 kmh 29.56 in1001.0 mb 0.00 in0.0 mm 0.00 in0.0 mm 0.00 in0.0 mm
01:40 AM 59.6°F15.3°C 53.8°F12.1°C 81% 9.3 mph S15.0 kmh S 13.4 mph21.6 kmh 29.56 in1001.0 mb 0.00 in0.0 mm 0.00 in0.0 mm 0.00 in0.0 mm
01:45 AM 59.5°F15.3°C 53.6°F12.0°C 81% 8.9 mph S14.3 kmh S 11.3 mph18.2 kmh 29.56 in1001.0 mb 0.00 in0.0 mm 0.00 in0.0 mm 0.00 in0.0 mm
01:50 AM 59.5°F15.3°C 53.6°F12.0°C 81% 8.9 mph S14.3 kmh S 11.3 mph18.2 kmh 29.53 in1000.0 mb 0.00 in0.0 mm 0.00 in0.0 mm 0.00 in0.0 mm
01:55 AM 59.3°F15.2°C 53.8°F12.1°C 82% 7.0 mph S11.3 kmh S 9.2 mph14.8 kmh 29.53 in1000.0 mb 0.00 in0.0 mm 0.00 in0.0 mm 0.00 in0.0 mm
02:00 AM 59.3°F15.2°C 53.8°F12.1°C 82% 6.6 mph SSW10.6 kmh SSW 10.4 mph16.7 kmh 29.53 in1000.0 mb 0.00 in0.0 mm 0.00 in0.0 mm 0.00 in0.0 mm
02:05 AM 59.1°F15.1°C 53.6°F12.0°C 82% 6.7 mph S10.8 kmh S 10.4 mph16.7 kmh 29.53 in1000.0 mb 0.00 in0.0 mm 0.00 in0.0 mm 0.00 in0.0 mm
02:10 AM 59.1°F15.1°C 53.9°F12.2°C 83% 6.4 mph S10.3 kmh S 8.6 mph13.8 kmh 29.53 in1000.0 mb 0.00 in0.0 mm 0.00 in0.0 mm 0.00 in0.0 mm
02:15 AM 59.1°F15.1°C 53.9°F12.2°C 83% 5.1 mph S8.2 kmh S 8.0 mph12.9 kmh 29.53 in1000.0 mb 0.00 in0.0 mm 0.00 in0.0 mm 0.00 in0.0 mm
02:20 AM 58.9°F14.9°C 53.8°F12.1°C 83% 3.9 mph S6.3 kmh S 8.0 mph12.9 kmh 29.53 in1000.0 mb 0.00 in0.0 mm 0.00 in0.0 mm 0.00 in0.0 mm
02:25 AM 58.9°F14.9°C 53.8°F12.1°C 83% 4.3 mph SSW6.9 kmh SSW 5.7 mph9.2 kmh 29.53 in1000.0 mb 0.00 in0.0 mm 0.00 in0.0 mm 0.00 in0.0 mm
02:30 AM 58.9°F14.9°C 53.8°F12.1°C 83% 5.6 mph SSW9.0 kmh SSW 8.0 mph12.9 kmh 29.53 in1000.0 mb 0.00 in0.0 mm 0.00 in0.0 mm 0.00 in0.0 mm
02:35 AM 58.9°F14.9°C 53.8°F12.1°C 83% 5.4 mph S8.7 kmh S 8.0 mph12.9 kmh 29.53 in1000.0 mb 0.00 in0.0 mm 0.00 in0.0 mm 0.00 in0.0 mm
02:40 AM 58.9°F14.9°C 54.1°F12.3°C 84% 4.2 mph S6.8 kmh S 6.2 mph10.0 kmh 29.53 in1000.0 mb 0.00 in0.0 mm 0.00 in0.0 mm 0.00 in0.0 mm
02:45 AM 58.7°F14.8°C 53.9°F12.2°C 84% 3.8 mph SSE6.1 kmh SSE 6.2 mph10.0 kmh 29.53 in1000.0 mb 0.00 in0.0 mm 0.00 in0.0 mm 0.00 in0.0 mm
02:50 AM 58.7°F14.8°C 53.9°F12.2°C 84% 4.6 mph S7.4 kmh S 8.3 mph13.4 kmh 29.50 in999.0 mb 0.00 in0.0 mm 0.00 in0.0 mm 0.00 in0.0 mm
02:55 AM 58.7°F14.8°C 53.9°F12.2°C 84% 5.7 mph S9.2 kmh S 8.3 mph13.4 kmh 29.50 in999.0 mb 0.00 in0.0 mm 0.00 in0.0 mm 0.00 in0.0 mm
03:00 AM 58.7°F14.8°C 53.9°F12.2°C 84% 5.6 mph S9.0 kmh S 8.0 mph12.9 kmh 29.50 in999.0 mb 0.00 in0.0 mm 0.00 in0.0 mm 0.00 in0.0 mm
03:05 AM 58.7°F14.8°C 54.2°F12.3°C 85% 5.5 mph S8.9 kmh S 8.6 mph13.8 kmh 29.50 in999.0 mb 0.00 in0.0 mm 0.00 in0.0 mm 0.00 in0.0 mm
03:10 AM 58.7°F14.8°C 54.2°F12.3°C 85% 5.2 mph S8.4 kmh S 8.6 mph13.8 kmh 29.50 in999.0 mb 0.00 in0.0 mm 0.00 in0.0 mm 0.00 in0.0 mm
03:15 AM 58.9°F14.9°C 54.4°F12.4°C 85% 5.3 mph S8.5 kmh S 7.7 mph12.4 kmh 29.50 in999.0 mb 0.00 in0.0 mm 0.00 in0.0 mm 0.00 in0.0 mm
03:20 AM 59.1°F15.1°C 54.6°F12.6°C 85% 4.9 mph S7.9 kmh S 7.7 mph12.4 kmh 29.50 in999.0 mb 0.00 in0.0 mm 0.00 in0.0 mm 0.00 in0.0 mm
03:25 AM 59.1°F15.1°C 54.9°F12.7°C 86% 3.9 mph S6.3 kmh S 7.4 mph11.9 kmh 29.50 in999.0 mb 0.00 in0.0 mm 0.00 in0.0 mm 0.00 in0.0 mm
03:30 AM 59.3°F15.2°C 55.1°F12.8°C 86% 4.5 mph SSE7.2 kmh SSE 7.4 mph11.9 kmh 29.50 in999.0 mb 0.00 in0.0 mm 0.00 in0.0 mm 0.00 in0.0 mm
03:35 AM 59.3°F15.2°C 55.1°F12.8°C 86% 4.8 mph S7.7 kmh S 7.7 mph12.4 kmh 29.50 in999.0 mb 0.00 in0.0 mm 0.00 in0.0 mm 0.00 in0.0 mm
03:40 AM 59.5°F15.3°C 55.3°F12.9°C 86% 5.1 mph S8.2 kmh S 7.7 mph12.4 kmh 29.50 in999.0 mb 0.00 in0.0 mm 0.00 in0.0 mm 0.00 in0.0 mm
03:45 AM 59.5°F15.3°C 55.3°F12.9°C 86% 5.0 mph S8.0 kmh S 7.1 mph11.4 kmh 29.50 in999.0 mb 0.00 in0.0 mm 0.00 in0.0 mm 0.00 in0.0 mm
03:50 AM 59.5°F15.3°C 55.3°F12.9°C 86% 6.2 mph SSE10.0 kmh SSE 12.8 mph20.6 kmh 29.50 in999.0 mb 0.00 in0.0 mm 0.00 in0.0 mm 0.00 in0.0 mm
03:55 AM 59.6°F15.3°C 55.1°F12.8°C 85% 6.8 mph SSE10.9 kmh SSE 12.8 mph20.6 kmh 29.50 in999.0 mb 0.00 in0.0 mm 0.00 in0.0 mm 0.00 in0.0 mm
04:00 AM 59.6°F15.3°C 55.1°F12.8°C 85% 5.1 mph S8.2 kmh S 8.3 mph13.4 kmh 29.50 in999.0 mb 0.00 in0.0 mm 0.00 in0.0 mm 0.00 in0.0 mm
04:05 AM 59.8°F15.4°C 55.3°F12.9°C 85% 4.6 mph S7.4 kmh S 7.1 mph11.4 kmh 29.47 in998.0 mb 0.00 in0.0 mm 0.00 in0.0 mm 0.00 in0.0 mm
04:10 AM 59.8°F15.4°C 55.3°F12.9°C 85% 5.5 mph SSE8.9 kmh SSE 10.7 mph17.2 kmh 29.47 in998.0 mb 0.00 in0.0 mm 0.00 in0.0 mm 0.00 in0.0 mm
04:15 AM 59.8°F15.4°C 55.3°F12.9°C 85% 6.7 mph SSE10.8 kmh SSE 10.7 mph17.2 kmh 29.47 in998.0 mb 0.00 in0.0 mm 0.00 in0.0 mm 0.00 in0.0 mm
04:20 AM 59.8°F15.4°C 55.3°F12.9°C 85% 6.3 mph SE10.1 kmh SE 10.4 mph16.7 kmh 29.47 in998.0 mb 0.00 in0.0 mm 0.00 in0.0 mm 0.00 in0.0 mm
04:25 AM 59.8°F15.4°C 55.3°F12.9°C 85% 5.7 mph S9.2 kmh S 11.3 mph18.2 kmh 29.47 in998.0 mb 0.00 in0.0 mm 0.00 in0.0 mm 0.00 in0.0 mm
04:35 AM 59.8°F15.4°C 55.3°F12.9°C 85% 6.9 mph S11.1 kmh S 11.0 mph17.7 kmh 29.47 in998.0 mb 0.00 in0.0 mm 0.00 in0.0 mm 0.00 in0.0 mm
04:40 AM 59.8°F15.4°C 55.3°F12.9°C 85% 6.5 mph S10.5 kmh S 11.0 mph17.7 kmh 29.47 in998.0 mb 0.00 in0.0 mm 0.00 in0.0 mm 0.00 in0.0 mm
04:45 AM 59.8°F15.4°C 55.3°F12.9°C 85% 6.5 mph S10.5 kmh S 10.1 mph16.3 kmh 29.47 in998.0 mb 0.00 in0.0 mm 0.00 in0.0 mm 0.00 in0.0 mm
04:50 AM 59.8°F15.4°C 55.0°F12.8°C 84% 6.1 mph S9.8 kmh S 10.1 mph16.3 kmh 29.50 in999.0 mb 0.00 in0.0 mm 0.00 in0.0 mm 0.00 in0.0 mm
04:55 AM 59.8°F15.4°C 55.0°F12.8°C 84% 5.8 mph S9.3 kmh S 9.5 mph15.3 kmh 29.50 in999.0 mb 0.00 in0.0 mm 0.00 in0.0 mm 0.00 in0.0 mm
05:00 AM 59.8°F15.4°C 55.3°F12.9°C 85% 5.7 mph S9.2 kmh S 9.5 mph15.3 kmh 29.50 in999.0 mb 0.00 in0.0 mm 0.00 in0.0 mm 0.00 in0.0 mm
05:05 AM 59.6°F15.3°C 55.1°F12.8°C 85% 5.1 mph S8.2 kmh S 10.1 mph16.3 kmh 29.50 in999.0 mb 0.00 in0.0 mm 0.00 in0.0 mm 0.00 in0.0 mm
05:10 AM 59.6°F15.3°C 54.8°F12.7°C 84% 7.2 mph S11.6 kmh S 10.7 mph17.2 kmh 29.50 in999.0 mb 0.00 in0.0 mm 0.00 in0.0 mm 0.00 in0.0 mm
05:20 AM 59.5°F15.3°C 54.9°F12.7°C 85% 5.4 mph S8.7 kmh S 7.7 mph12.4 kmh 29.47 in998.0 mb 0.00 in0.0 mm 0.00 in0.0 mm 0.00 in0.0 mm
05:25 AM 59.5°F15.3°C 54.9°F12.7°C 85% 5.0 mph S8.0 kmh S 8.0 mph12.9 kmh 29.47 in998.0 mb 0.00 in0.0 mm 0.00 in0.0 mm 0.00 in0.0 mm
05:30 AM 59.3°F15.2°C 54.4°F12.4°C 84% 5.3 mph SSW8.5 kmh SSW 8.0 mph12.9 kmh 29.47 in998.0 mb 0.00 in0.0 mm 0.00 in0.0 mm 0.00 in0.0 mm
05:35 AM 59.1°F15.1°C 54.3°F12.4°C 84% 5.5 mph S8.9 kmh S 8.0 mph12.9 kmh 29.50 in999.0 mb 0.00 in0.0 mm 0.00 in0.0 mm 0.00 in0.0 mm
05:40 AM 59.1°F15.1°C 54.3°F12.4°C 84% 6.4 mph SSW10.3 kmh SSW 9.5 mph15.3 kmh 29.50 in999.0 mb 0.00 in0.0 mm 0.00 in0.0 mm 0.00 in0.0 mm
05:45 AM 58.9°F14.9°C 54.1°F12.3°C 84% 8.2 mph S13.2 kmh S 9.8 mph15.8 kmh 29.50 in999.0 mb 0.00 in0.0 mm 0.00 in0.0 mm 0.00 in0.0 mm
05:50 AM 58.9°F14.9°C 54.1°F12.3°C 84% 8.5 mph S13.7 kmh S 10.7 mph17.2 kmh 29.47 in998.0 mb 0.00 in0.0 mm 0.00 in0.0 mm 0.00 in0.0 mm
05:55 AM 58.7°F14.8°C 53.9°F12.2°C 84% 8.0 mph S12.9 kmh S 10.7 mph17.2 kmh 29.47 in998.0 mb 0.00 in0.0 mm 0.00 in0.0 mm 0.00 in0.0 mm
06:00 AM 58.7°F14.8°C 53.9°F12.2°C 84% 7.0 mph SSW11.3 kmh SSW 8.0 mph12.9 kmh 29.47 in998.0 mb 0.00 in0.0 mm 0.00 in0.0 mm 0.00 in0.0 mm
06:05 AM 58.5°F14.7°C 53.7°F12.1°C 84% 6.8 mph S10.9 kmh S 8.6 mph13.8 kmh 29.50 in999.0 mb 0.00 in0.0 mm 0.00 in0.0 mm 0.00 in0.0 mm
06:10 AM 58.5°F14.7°C 53.7°F12.1°C 84% 8.1 mph S13.0 kmh S 11.3 mph18.2 kmh 29.50 in999.0 mb 0.00 in0.0 mm 0.00 in0.0 mm 0.00 in0.0 mm
06:15 AM 58.4°F14.7°C 53.6°F12.0°C 84% 7.7 mph S12.4 kmh S 11.3 mph18.2 kmh 29.50 in999.0 mb 0.00 in0.0 mm 0.00 in0.0 mm 0.00 in0.0 mm
06:20 AM 58.2°F14.6°C 53.4°F11.9°C 84% 6.5 mph S10.5 kmh S 10.7 mph17.2 kmh 29.47 in998.0 mb 0.00 in0.0 mm 0.00 in0.0 mm 0.00 in0.0 mm
06:25 AM 58.2°F14.6°C 53.4°F11.9°C 84% 6.5 mph S10.5 kmh S 9.8 mph15.8 kmh 29.47 in998.0 mb 0.00 in0.0 mm 0.00 in0.0 mm 0.00 in0.0 mm
06:30 AM 58.0°F14.4°C 53.2°F11.8°C 84% 6.6 mph S10.6 kmh S 10.1 mph16.3 kmh 29.47 in998.0 mb 0.00 in0.0 mm 0.00 in0.0 mm 0.00 in0.0 mm
06:35 AM 58.0°F14.4°C 53.2°F11.8°C 84% 6.1 mph S9.8 kmh S 10.1 mph16.3 kmh 29.50 in999.0 mb 0.00 in0.0 mm 0.00 in0.0 mm 0.00 in0.0 mm
06:40 AM 57.8°F14.3°C 53.0°F11.7°C 84% 5.3 mph S8.5 kmh S 7.4 mph11.9 kmh 29.50 in999.0 mb 0.00 in0.0 mm 0.00 in0.0 mm 0.00 in0.0 mm
06:45 AM 57.8°F14.3°C 53.0°F11.7°C 84% 5.7 mph S9.2 kmh S 8.0 mph12.9 kmh 29.50 in999.0 mb 0.00 in0.0 mm 0.00 in0.0 mm 0.00 in0.0 mm
06:50 AM 57.8°F14.3°C 53.0°F11.7°C 84% 6.2 mph S10.0 kmh S 8.0 mph12.9 kmh 29.50 in999.0 mb 0.00 in0.0 mm 0.00 in0.0 mm 0.00 in0.0 mm
06:55 AM 57.7°F14.3°C 53.2°F11.8°C 85% 6.1 mph S9.8 kmh S 7.7 mph12.4 kmh 29.50 in999.0 mb 0.00 in0.0 mm 0.00 in0.0 mm 0.00 in0.0 mm
07:00 AM 57.7°F14.3°C 53.2°F11.8°C 85% 6.5 mph S10.5 kmh S 8.6 mph13.8 kmh 29.50 in999.0 mb 0.00 in0.0 mm 0.00 in0.0 mm 0.00 in0.0 mm
07:05 AM 57.7°F14.3°C 53.2°F11.8°C 85% 6.7 mph S10.8 kmh S 10.7 mph17.2 kmh 29.50 in999.0 mb 0.00 in0.0 mm 0.00 in0.0 mm 0.00 in0.0 mm
07:10 AM 57.7°F14.3°C 53.2°F11.8°C 85% 7.7 mph S12.4 kmh S 10.7 mph17.2 kmh 29.50 in999.0 mb 0.00 in0.0 mm 0.00 in0.0 mm 0.00 in0.0 mm
07:15 AM 57.7°F14.3°C 53.2°F11.8°C 85% 7.6 mph S12.2 kmh S 10.7 mph17.2 kmh 29.50 in999.0 mb 0.00 in0.0 mm 0.00 in0.0 mm 0.00 in0.0 mm
07:20 AM 57.7°F14.3°C 53.2°F11.8°C 85% 6.8 mph S10.9 kmh S 10.7 mph17.2 kmh 29.50 in999.0 mb 0.00 in0.0 mm 0.00 in0.0 mm 0.00 in0.0 mm
07:25 AM 57.7°F14.3°C 53.2°F11.8°C 85% 6.0 mph S9.7 kmh S 9.8 mph15.8 kmh 29.50 in999.0 mb 0.00 in0.0 mm 0.00 in0.0 mm 0.00 in0.0 mm
07:30 AM 57.8°F14.3°C 53.3°F11.8°C 85% 5.8 mph S9.3 kmh S 9.8 mph15.8 kmh 29.50 in999.0 mb 0.00 in0.0 mm 0.00 in0.0 mm 0.00 in0.0 mm
07:35 AM 57.8°F14.3°C 53.3°F11.8°C 85% 5.7 mph S9.2 kmh S 10.7 mph17.2 kmh 29.50 in999.0 mb 0.00 in0.0 mm 0.00 in0.0 mm 0.00 in0.0 mm
07:40 AM 58.0°F14.4°C 53.5°F11.9°C 85% 6.1 mph S9.8 kmh S 11.6 mph18.7 kmh 29.50 in999.0 mb 0.00 in0.0 mm 0.00 in0.0 mm 0.00 in0.0 mm
07:45 AM 58.0°F14.4°C 53.5°F11.9°C 85% 8.0 mph S12.9 kmh S 13.7 mph22.0 kmh 29.50 in999.0 mb 0.00 in0.0 mm 0.00 in0.0 mm 0.00 in0.0 mm
07:50 AM 58.2°F14.6°C 53.7°F12.1°C 85% 9.5 mph S15.3 kmh S 13.7 mph22.0 kmh 29.50 in999.0 mb 0.00 in0.0 mm 0.00 in0.0 mm 0.00 in0.0 mm
07:55 AM 58.4°F14.7°C 53.9°F12.2°C 85% 9.5 mph S15.3 kmh S 13.7 mph22.0 kmh 29.50 in999.0 mb 0.00 in0.0 mm 0.00 in0.0 mm 0.00 in0.0 mm
08:05 AM 58.5°F14.7°C 54.1°F12.3°C 85% 9.9 mph S15.9 kmh S 16.7 mph26.9 kmh 29.53 in1000.0 mb 0.00 in0.0 mm 0.00 in0.0 mm 0.00 in0.0 mm
08:10 AM 58.7°F14.8°C 54.2°F12.3°C 85% 7.8 mph S12.6 kmh S 16.7 mph26.9 kmh 29.53 in1000.0 mb 0.00 in0.0 mm 0.00 in0.0 mm 0.00 in0.0 mm
08:15 AM 58.7°F14.8°C 54.2°F12.3°C 85% 7.1 mph SSW11.4 kmh SSW 11.3 mph18.2 kmh 29.53 in1000.0 mb 0.00 in0.0 mm 0.00 in0.0 mm 0.00 in0.0 mm
08:20 AM 58.9°F14.9°C 54.4°F12.4°C 85% 7.5 mph S12.1 kmh S 11.3 mph18.2 kmh 29.53 in1000.0 mb 0.00 in0.0 mm 0.00 in0.0 mm 0.00 in0.0 mm
08:25 AM 58.9°F14.9°C 54.4°F12.4°C 85% 6.0 mph SSE9.7 kmh SSE 8.9 mph14.3 kmh 29.53 in1000.0 mb 0.00 in0.0 mm 0.00 in0.0 mm 0.00 in0.0 mm
08:30 AM 58.9°F14.9°C 54.4°F12.4°C 85% 5.5 mph S8.9 kmh S 8.3 mph13.4 kmh 29.53 in1000.0 mb 0.00 in0.0 mm 0.00 in0.0 mm 0.00 in0.0 mm
08:35 AM 58.9°F14.9°C 54.4°F12.4°C 85% 5.5 mph S8.9 kmh S 7.4 mph11.9 kmh 29.53 in1000.0 mb 0.00 in0.0 mm 0.00 in0.0 mm 0.00 in0.0 mm
08:40 AM 58.9°F14.9°C 54.4°F12.4°C 85% 6.0 mph S9.7 kmh S 10.1 mph16.3 kmh 29.53 in1000.0 mb 0.00 in0.0 mm 0.00 in0.0 mm 0.00 in0.0 mm
08:45 AM 58.9°F14.9°C 54.7°F12.6°C 86% 6.6 mph S10.6 kmh S 10.1 mph16.3 kmh 29.53 in1000.0 mb 0.00 in0.0 mm 0.00 in0.0 mm 0.00 in0.0 mm
08:50 AM 59.1°F15.1°C 54.9°F12.7°C 86% 7.7 mph S12.4 kmh S 14.3 mph23.0 kmh 29.50 in999.0 mb 0.00 in0.0 mm 0.00 in0.0 mm 0.00 in0.0 mm
08:55 AM 59.1°F15.1°C 54.9°F12.7°C 86% 7.9 mph S12.7 kmh S 14.3 mph23.0 kmh 29.50 in999.0 mb 0.00 in0.0 mm 0.00 in0.0 mm 0.00 in0.0 mm
09:00 AM 59.1°F15.1°C 54.9°F12.7°C 86% 7.8 mph S12.6 kmh S 16.1 mph25.9 kmh 29.50 in999.0 mb 0.00 in0.0 mm 0.00 in0.0 mm 0.00 in0.0 mm
09:05 AM 59.3°F15.2°C 55.1°F12.8°C 86% 8.5 mph S13.7 kmh S 16.1 mph25.9 kmh 29.50 in999.0 mb 0.00 in0.0 mm 0.00 in0.0 mm 0.00 in0.0 mm
09:10 AM 59.5°F15.3°C 55.6°F13.1°C 87% 10.0 mph S16.1 kmh S 13.7 mph22.0 kmh 29.50 in999.0 mb 0.00 in0.0 mm 0.00 in0.0 mm 0.00 in0.0 mm
09:15 AM 59.6°F15.3°C 55.4°F13.0°C 86% 9.1 mph S14.6 kmh S 13.7 mph22.0 kmh 29.50 in999.0 mb 0.00 in0.0 mm 0.00 in0.0 mm 0.00 in0.0 mm
09:20 AM 59.8°F15.4°C 55.6°F13.1°C 86% 8.1 mph S13.0 kmh S 14.3 mph23.0 kmh 29.50 in999.0 mb 0.00 in0.0 mm 0.00 in0.0 mm 0.00 in0.0 mm
09:25 AM 60.0°F15.6°C 55.8°F13.2°C 86% 9.1 mph S14.6 kmh S 14.3 mph23.0 kmh 29.50 in999.0 mb 0.00 in0.0 mm 0.00 in0.0 mm 0.00 in0.0 mm
09:30 AM 60.0°F15.6°C 55.8°F13.2°C 86% 9.5 mph S15.3 kmh S 14.0 mph22.5 kmh 29.50 in999.0 mb 0.00 in0.0 mm 0.00 in0.0 mm 0.00 in0.0 mm
09:35 AM 60.0°F15.6°C 55.8°F13.2°C 86% 8.7 mph SSW14.0 kmh SSW 13.4 mph21.6 kmh 29.50 in999.0 mb 0.00 in0.0 mm 0.00 in0.0 mm 0.00 in0.0 mm
09:40 AM 59.8°F15.4°C 55.6°F13.1°C 86% 7.7 mph S12.4 kmh S 10.1 mph16.3 kmh 29.50 in999.0 mb 0.00 in0.0 mm 0.00 in0.0 mm 0.00 in0.0 mm
09:45 AM 59.6°F15.3°C 55.4°F13.0°C 86% 7.4 mph S11.9 kmh S 10.1 mph16.3 kmh 29.50 in999.0 mb 0.00 in0.0 mm 0.00 in0.0 mm 0.00 in0.0 mm
09:50 AM 59.6°F15.3°C 55.4°F13.0°C 86% 6.9 mph S11.1 kmh S 9.8 mph15.8 kmh 29.50 in999.0 mb 0.00 in0.0 mm 0.00 in0.0 mm 0.00 in0.0 mm
09:55 AM 59.5°F15.3°C 55.3°F12.9°C 86% 6.7 mph S10.8 kmh S 9.8 mph15.8 kmh 29.50 in999.0 mb 0.00 in0.0 mm 0.00 in0.0 mm 0.00 in0.0 mm
10:00 AM 59.5°F15.3°C 55.3°F12.9°C 86% 6.0 mph S9.7 kmh S 9.8 mph15.8 kmh 29.50 in999.0 mb 0.00 in0.0 mm 0.00 in0.0 mm 0.00 in0.0 mm
10:05 AM 59.5°F15.3°C 55.3°F12.9°C 86% 6.0 mph S9.7 kmh S 9.8 mph15.8 kmh 29.50 in999.0 mb 0.00 in0.0 mm 0.00 in0.0 mm 0.00 in0.0 mm
10:10 AM 59.5°F15.3°C 55.3°F12.9°C 86% 6.0 mph S9.7 kmh S 8.3 mph13.4 kmh 29.50 in999.0 mb 0.00 in0.0 mm 0.00 in0.0 mm 0.00 in0.0 mm
10:15 AM 59.5°F15.3°C 55.3°F12.9°C 86% 5.9 mph S9.5 kmh S 8.6 mph13.8 kmh 29.50 in999.0 mb 0.00 in0.0 mm 0.00 in0.0 mm 0.00 in0.0 mm
10:20 AM 59.6°F15.3°C 55.1°F12.8°C 85% 5.8 mph S9.3 kmh S 8.6 mph13.8 kmh 29.50 in999.0 mb 0.00 in0.0 mm 0.00 in0.0 mm 0.00 in0.0 mm
10:25 AM 59.6°F15.3°C 55.1°F12.8°C 85% 5.5 mph S8.9 kmh S 9.5 mph15.3 kmh 29.50 in999.0 mb 0.00 in0.0 mm 0.00 in0.0 mm 0.00 in0.0 mm
10:30 AM 59.8°F15.4°C 55.3°F12.9°C 85% 5.7 mph SSE9.2 kmh SSE 9.5 mph15.3 kmh 29.50 in999.0 mb 0.00 in0.0 mm 0.00 in0.0 mm 0.00 in0.0 mm
10:35 AM 59.8°F15.4°C 55.0°F12.8°C 84% 6.4 mph SSE10.3 kmh SSE 11.6 mph18.7 kmh 29.50 in999.0 mb 0.00 in0.0 mm 0.00 in0.0 mm 0.00 in0.0 mm
10:40 AM 59.6°F15.3°C 54.8°F12.7°C 84% 7.0 mph S11.3 kmh S 11.6 mph18.7 kmh 29.50 in999.0 mb 0.00 in0.0 mm 0.00 in0.0 mm 0.00 in0.0 mm
10:45 AM 59.8°F15.4°C 55.0°F12.8°C 84% 7.6 mph SSE12.2 kmh SSE 11.6 mph18.7 kmh 29.50 in999.0 mb 0.00 in0.0 mm 0.00 in0.0 mm 0.00 in0.0 mm
10:50 AM 59.8°F15.4°C 55.0°F12.8°C 84% 7.9 mph SE12.7 kmh SE 11.6 mph18.7 kmh 29.50 in999.0 mb 0.00 in0.0 mm 0.00 in0.0 mm 0.00 in0.0 mm
10:55 AM 59.8°F15.4°C 55.0°F12.8°C 84% 7.9 mph SE12.7 kmh SE 10.7 mph17.2 kmh 29.50 in999.0 mb 0.00 in0.0 mm 0.00 in0.0 mm 0.00 in0.0 mm
11:00 AM 59.8°F15.4°C 55.0°F12.8°C 84% 6.7 mph SE10.8 kmh SE 9.5 mph15.3 kmh 29.50 in999.0 mb 0.00 in0.0 mm 0.00 in0.0 mm 0.00 in0.0 mm
11:05 AM 59.8°F15.4°C 55.0°F12.8°C 84% 5.5 mph SE8.9 kmh SE 9.5 mph15.3 kmh 29.50 in999.0 mb 0.00 in0.0 mm 0.00 in0.0 mm 0.00 in0.0 mm
11:10 AM 59.8°F15.4°C 55.0°F12.8°C 84% 6.7 mph SE10.8 kmh SE 9.8 mph15.8 kmh 29.50 in999.0 mb 0.00 in0.0 mm 0.00 in0.0 mm 0.00 in0.0 mm
11:15 AM 59.8°F15.4°C 55.0°F12.8°C 84% 8.3 mph SSE13.4 kmh SSE 11.6 mph18.7 kmh 29.50 in999.0 mb 0.00 in0.0 mm 0.00 in0.0 mm 0.00 in0.0 mm
11:20 AM 59.8°F15.4°C 55.0°F12.8°C 84% 9.5 mph SE15.3 kmh SE 14.0 mph22.5 kmh 29.50 in999.0 mb 0.00 in0.0 mm 0.00 in0.0 mm 0.00 in0.0 mm
11:25 AM 59.8°F15.4°C 55.3°F12.9°C 85% 9.3 mph SE15.0 kmh SE 14.0 mph22.5 kmh 29.50 in999.0 mb 0.00 in0.0 mm 0.00 in0.0 mm 0.00 in0.0 mm
11:30 AM 60.0°F15.6°C 55.1°F12.8°C 84% 8.2 mph SSE13.2 kmh SSE 11.6 mph18.7 kmh 29.50 in999.0 mb 0.00 in0.0 mm 0.00 in0.0 mm 0.00 in0.0 mm
11:35 AM 60.0°F15.6°C 55.5°F13.1°C 85% 9.4 mph S15.1 kmh S 13.1 mph21.1 kmh 29.47 in998.0 mb 0.00 in0.0 mm 0.00 in0.0 mm 0.00 in0.0 mm
11:40 AM 60.2°F15.7°C 55.6°F13.1°C 85% 9.3 mph S15.0 kmh S 13.1 mph21.1 kmh 29.47 in998.0 mb 0.00 in0.0 mm 0.00 in0.0 mm 0.00 in0.0 mm
11:45 AM 60.2°F15.7°C 55.6°F13.1°C 85% 7.3 mph S11.7 kmh S 11.6 mph18.7 kmh 29.47 in998.0 mb 0.00 in0.0 mm 0.00 in0.0 mm 0.00 in0.0 mm
11:50 AM 60.2°F15.7°C 55.6°F13.1°C 85% 10.5 mph S16.9 kmh S 14.6 mph23.5 kmh 29.47 in998.0 mb 0.00 in0.0 mm 0.00 in0.0 mm 0.00 in0.0 mm
11:55 AM 60.2°F15.7°C 55.6°F13.1°C 85% 13.2 mph S21.2 kmh S 18.4 mph29.6 kmh 29.47 in998.0 mb 0.00 in0.0 mm 0.00 in0.0 mm 0.00 in0.0 mm
12:00 PM 60.0°F15.6°C 55.5°F13.1°C 85% 13.0 mph S20.9 kmh S 18.4 mph29.6 kmh 29.47 in998.0 mb 0.00 in0.0 mm 0.00 in0.0 mm 0.00 in0.0 mm
12:05 PM 60.2°F15.7°C 55.6°F13.1°C 85% 11.3 mph S18.2 kmh S 17.9 mph28.8 kmh 29.47 in998.0 mb 0.00 in0.0 mm 0.00 in0.0 mm 0.00 in0.0 mm
12:10 PM 60.2°F15.7°C 55.6°F13.1°C 85% 11.1 mph S17.9 kmh S 16.7 mph26.9 kmh 29.47 in998.0 mb 0.00 in0.0 mm 0.00 in0.0 mm 0.00 in0.0 mm
12:15 PM 60.9°F16.1°C 56.7°F13.7°C 86% 10.1 mph S16.3 kmh S 16.7 mph26.9 kmh 29.47 in998.0 mb 0.00 in0.0 mm 0.00 in0.0 mm 0.00 in0.0 mm
12:20 PM 61.4°F16.3°C 57.2°F14.0°C 86% 7.0 mph SSE11.3 kmh SSE 10.1 mph16.3 kmh 29.50 in999.0 mb 0.00 in0.0 mm 0.00 in0.0 mm 0.00 in0.0 mm
12:25 PM 61.6°F16.4°C 57.4°F14.1°C 86% 8.0 mph S12.9 kmh S 11.6 mph18.7 kmh 29.50 in999.0 mb 0.00 in0.0 mm 0.00 in0.0 mm 0.00 in0.0 mm
12:30 PM 61.6°F16.4°C 57.1°F13.9°C 85% 9.7 mph SSW15.6 kmh SSW 13.7 mph22.0 kmh 29.50 in999.0 mb 0.00 in0.0 mm 0.00 in0.0 mm 0.00 in0.0 mm
12:35 PM 61.8°F16.6°C 57.2°F14.0°C 85% 10.1 mph S16.3 kmh S 13.7 mph22.0 kmh 29.50 in999.0 mb 0.00 in0.0 mm 0.00 in0.0 mm 0.00 in0.0 mm
12:40 PM 61.8°F16.6°C 56.9°F13.8°C 84% 8.7 mph S14.0 kmh S 11.9 mph19.2 kmh 29.50 in999.0 mb 0.00 in0.0 mm 0.00 in0.0 mm 0.00 in0.0 mm
12:45 PM 62.0°F16.7°C 57.1°F13.9°C 84% 7.9 mph S12.7 kmh S 10.7 mph17.2 kmh 29.50 in999.0 mb 0.00 in0.0 mm 0.00 in0.0 mm 0.00 in0.0 mm
12:50 PM 62.0°F16.7°C 57.1°F13.9°C 84% 9.2 mph S14.8 kmh S 13.1 mph21.1 kmh 29.50 in999.0 mb 0.00 in0.0 mm 0.00 in0.0 mm 0.00 in0.0 mm
12:55 PM 62.2°F16.8°C 56.9°F13.8°C 83% 11.2 mph S18.0 kmh S 17.6 mph28.3 kmh 29.50 in999.0 mb 0.00 in0.0 mm 0.00 in0.0 mm 0.00 in0.0 mm
01:00 PM 62.2°F16.8°C 56.9°F13.8°C 83% 11.0 mph S17.7 kmh S 17.6 mph28.3 kmh 29.50 in999.0 mb 0.00 in0.0 mm 0.00 in0.0 mm 0.00 in0.0 mm
01:05 PM 62.3°F16.8°C 57.1°F13.9°C 83% 10.9 mph S17.5 kmh S 17.6 mph28.3 kmh 29.47 in998.0 mb 0.00 in0.0 mm 0.00 in0.0 mm 0.00 in0.0 mm
01:10 PM 62.3°F16.8°C 57.1°F13.9°C 83% 12.1 mph SSW19.5 kmh SSW 17.3 mph27.8 kmh 29.47 in998.0 mb 0.00 in0.0 mm 0.00 in0.0 mm 0.00 in0.0 mm
01:15 PM 62.5°F16.9°C 56.9°F13.8°C 82% 13.8 mph SSW22.2 kmh SSW 17.3 mph27.8 kmh 29.47 in998.0 mb 0.00 in0.0 mm 0.00 in0.0 mm 0.00 in0.0 mm
01:20 PM 62.7°F17.1°C 57.1°F13.9°C 82% 14.1 mph S22.7 kmh S 17.3 mph27.8 kmh 29.47 in998.0 mb 0.00 in0.0 mm 0.00 in0.0 mm 0.00 in0.0 mm
01:25 PM 62.7°F17.1°C 56.8°F13.8°C 81% 13.1 mph S21.1 kmh S 16.7 mph26.9 kmh 29.47 in998.0 mb 0.00 in0.0 mm 0.00 in0.0 mm 0.00 in0.0 mm
01:30 PM 62.7°F17.1°C 56.8°F13.8°C 81% 14.3 mph S23.0 kmh S 25.6 mph41.2 kmh 29.47 in998.0 mb 0.00 in0.0 mm 0.00 in0.0 mm 0.00 in0.0 mm
01:35 PM 62.5°F16.9°C 56.6°F13.7°C 81% 14.7 mph S23.7 kmh S 25.6 mph41.2 kmh 29.47 in998.0 mb 0.00 in0.0 mm 0.00 in0.0 mm 0.00 in0.0 mm
01:40 PM 62.5°F16.9°C 56.6°F13.7°C 81% 12.1 mph S19.5 kmh S 22.9 mph36.9 kmh 29.47 in998.0 mb 0.00 in0.0 mm 0.00 in0.0 mm 0.00 in0.0 mm
01:45 PM 62.7°F17.1°C 56.4°F13.6°C 80% 11.8 mph S19.0 kmh S 17.6 mph28.3 kmh 29.47 in998.0 mb 0.00 in0.0 mm 0.00 in0.0 mm 0.00 in0.0 mm
01:50 PM 62.7°F17.1°C 56.4°F13.6°C 80% 13.6 mph S21.9 kmh S 17.6 mph28.3 kmh 29.47 in998.0 mb 0.00 in0.0 mm 0.00 in0.0 mm 0.00 in0.0 mm
01:55 PM 62.5°F16.9°C 56.3°F13.5°C 80% 13.0 mph SSW20.9 kmh SSW 17.3 mph27.8 kmh 29.47 in998.0 mb 0.00 in0.0 mm 0.00 in0.0 mm 0.00 in0.0 mm
02:00 PM 62.3°F16.8°C 56.1°F13.4°C 80% 12.5 mph SSW20.1 kmh SSW 17.6 mph28.3 kmh 29.47 in998.0 mb 0.00 in0.0 mm 0.00 in0.0 mm 0.00 in0.0 mm
02:05 PM 62.5°F16.9°C 56.3°F13.5°C 80% 12.1 mph S19.5 kmh S 18.7 mph30.1 kmh 29.47 in998.0 mb 0.00 in0.0 mm 0.00 in0.0 mm 0.00 in0.0 mm
02:10 PM 62.7°F17.1°C 56.4°F13.6°C 80% 12.8 mph S20.6 kmh S 18.7 mph30.1 kmh 29.47 in998.0 mb 0.00 in0.0 mm 0.00 in0.0 mm 0.00 in0.0 mm
02:15 PM 62.7°F17.1°C 56.4°F13.6°C 80% 14.3 mph SSW23.0 kmh SSW 21.4 mph34.4 kmh 29.47 in998.0 mb 0.00 in0.0 mm 0.00 in0.0 mm 0.00 in0.0 mm
02:20 PM 62.9°F17.2°C 56.6°F13.7°C 80% 13.7 mph S22.0 kmh S 21.4 mph34.4 kmh 29.47 in998.0 mb 0.00 in0.0 mm 0.00 in0.0 mm 0.00 in0.0 mm
02:25 PM 62.9°F17.2°C 56.6°F13.7°C 80% 12.2 mph S19.6 kmh S 20.5 mph33.0 kmh 29.47 in998.0 mb 0.00 in0.0 mm 0.00 in0.0 mm 0.00 in0.0 mm
02:30 PM 62.9°F17.2°C 56.3°F13.5°C 79% 10.7 mph S17.2 kmh S 20.5 mph33.0 kmh 29.47 in998.0 mb 0.00 in0.0 mm 0.00 in0.0 mm 0.00 in0.0 mm
02:35 PM 62.9°F17.2°C 56.3°F13.5°C 79% 11.6 mph SSW18.7 kmh SSW 17.3 mph27.8 kmh 29.50 in999.0 mb 0.00 in0.0 mm 0.00 in0.0 mm 0.00 in0.0 mm
02:40 PM 62.9°F17.2°C 56.3°F13.5°C 79% 11.9 mph S19.2 kmh S 17.3 mph27.8 kmh 29.50 in999.0 mb 0.00 in0.0 mm 0.00 in0.0 mm 0.00 in0.0 mm
02:45 PM 62.9°F17.2°C 56.3°F13.5°C 79% 11.3 mph S18.2 kmh S 19.6 mph31.5 kmh 29.50 in999.0 mb 0.00 in0.0 mm 0.00 in0.0 mm 0.00 in0.0 mm
02:50 PM 62.7°F17.1°C 56.1°F13.4°C 79% 11.0 mph S17.7 kmh S 19.6 mph31.5 kmh 29.50 in999.0 mb 0.00 in0.0 mm 0.00 in0.0 mm 0.00 in0.0 mm
02:55 PM 62.9°F17.2°C 56.6°F13.7°C 80% 10.0 mph S16.1 kmh S 16.1 mph25.9 kmh 29.50 in999.0 mb 0.00 in0.0 mm 0.00 in0.0 mm 0.00 in0.0 mm
03:00 PM 62.9°F17.2°C 56.3°F13.5°C 79% 9.6 mph SSW15.4 kmh SSW 14.6 mph23.5 kmh 29.50 in999.0 mb 0.00 in0.0 mm 0.00 in0.0 mm 0.00 in0.0 mm
03:05 PM 62.9°F17.2°C 56.3°F13.5°C 79% 9.8 mph SSW15.8 kmh SSW 14.3 mph23.0 kmh 29.50 in999.0 mb 0.00 in0.0 mm 0.00 in0.0 mm 0.00 in0.0 mm
03:10 PM 62.7°F17.1°C 56.1°F13.4°C 79% 9.1 mph SSW14.6 kmh SSW 14.3 mph23.0 kmh 29.50 in999.0 mb 0.00 in0.0 mm 0.00 in0.0 mm 0.00 in0.0 mm
03:15 PM 62.0°F16.7°C 54.7°F12.6°C 77% 9.0 mph WSW14.5 kmh WSW 14.0 mph22.5 kmh 29.50 in999.0 mb 0.00 in0.0 mm 0.00 in0.0 mm 0.00 in0.0 mm
03:20 PM 61.8°F16.6°C 54.5°F12.5°C 77% 9.5 mph W15.3 kmh W 14.9 mph24.0 kmh 29.50 in999.0 mb 0.00 in0.0 mm 0.00 in0.0 mm 0.00 in0.0 mm
03:25 PM 61.6°F16.4°C 54.0°F12.2°C 76% 10.2 mph WSW16.4 kmh WSW 14.9 mph24.0 kmh 29.50 in999.0 mb 0.00 in0.0 mm 0.00 in0.0 mm 0.00 in0.0 mm
03:30 PM 61.1°F16.2°C 53.8°F12.1°C 77% 11.2 mph WSW18.0 kmh WSW 17.3 mph27.8 kmh 29.50 in999.0 mb 0.00 in0.0 mm 0.00 in0.0 mm 0.00 in0.0 mm
03:35 PM 60.3°F15.7°C 52.7°F11.5°C 76% 10.0 mph W16.1 kmh W 17.3 mph27.8 kmh 29.53 in1000.0 mb 0.00 in0.0 mm 0.00 in0.0 mm 0.00 in0.0 mm
03:40 PM 59.6°F15.3°C 52.1°F11.2°C 76% 8.9 mph W14.3 kmh W 16.1 mph25.9 kmh 29.53 in1000.0 mb 0.00 in0.0 mm 0.00 in0.0 mm 0.00 in0.0 mm
03:45 PM 59.3°F15.2°C 51.7°F10.9°C 76% 9.3 mph W15.0 kmh W 16.1 mph25.9 kmh 29.53 in1000.0 mb 0.00 in0.0 mm 0.00 in0.0 mm 0.00 in0.0 mm
03:50 PM 58.7°F14.8°C 51.2°F10.7°C 76% 7.9 mph WSW12.7 kmh WSW 14.0 mph22.5 kmh 29.53 in1000.0 mb 0.00 in0.0 mm 0.00 in0.0 mm 0.00 in0.0 mm
03:55 PM 58.5°F14.7°C 51.0°F10.6°C 76% 6.6 mph W10.6 kmh W 10.7 mph17.2 kmh 29.53 in1000.0 mb 0.00 in0.0 mm 0.00 in0.0 mm 0.00 in0.0 mm
04:00 PM 58.4°F14.7°C 50.8°F10.4°C 76% 7.3 mph W11.7 kmh W 11.6 mph18.7 kmh 29.53 in1000.0 mb 0.00 in0.0 mm 0.00 in0.0 mm 0.00 in0.0 mm
04:05 PM 58.2°F14.6°C 50.7°F10.4°C 76% 8.6 mph W13.8 kmh W 13.1 mph21.1 kmh 29.53 in1000.0 mb 0.00 in0.0 mm 0.00 in0.0 mm 0.00 in0.0 mm
04:10 PM 58.2°F14.6°C 50.7°F10.4°C 76% 8.1 mph W13.0 kmh W 13.1 mph21.1 kmh 29.53 in1000.0 mb 0.00 in0.0 mm 0.00 in0.0 mm 0.00 in0.0 mm
04:15 PM 57.8°F14.3°C 50.7°F10.4°C 77% 6.2 mph WSW10.0 kmh WSW 10.1 mph16.3 kmh 29.53 in1000.0 mb 0.00 in0.0 mm 0.00 in0.0 mm 0.00 in0.0 mm
04:20 PM 57.8°F14.3°C 50.7°F10.4°C 77% 5.4 mph WSW8.7 kmh WSW 8.0 mph12.9 kmh 29.56 in1001.0 mb 0.00 in0.0 mm 0.00 in0.0 mm 0.00 in0.0 mm
04:25 PM 57.7°F14.3°C 50.8°F10.4°C 78% 5.4 mph WSW8.7 kmh WSW 7.1 mph11.4 kmh 29.56 in1001.0 mb 0.00 in0.0 mm 0.00 in0.0 mm 0.00 in0.0 mm
04:30 PM 57.5°F14.2°C 50.7°F10.4°C 78% 5.8 mph WSW9.3 kmh WSW 8.3 mph13.4 kmh 29.56 in1001.0 mb 0.00 in0.0 mm 0.00 in0.0 mm 0.00 in0.0 mm
04:35 PM 57.5°F14.2°C 50.7°F10.4°C 78% 5.3 mph W8.5 kmh W 8.3 mph13.4 kmh 29.56 in1001.0 mb 0.00 in0.0 mm 0.00 in0.0 mm 0.00 in0.0 mm
04:40 PM 57.3°F14.1°C 50.8°F10.4°C 79% 3.9 mph W6.3 kmh W 6.5 mph10.5 kmh 29.56 in1001.0 mb 0.00 in0.0 mm 0.00 in0.0 mm 0.00 in0.0 mm
04:45 PM 57.3°F14.1°C 50.8°F10.4°C 79% 4.4 mph WSW7.1 kmh WSW 5.7 mph9.2 kmh 29.56 in1001.0 mb 0.00 in0.0 mm 0.00 in0.0 mm 0.00 in0.0 mm
04:50 PM 57.3°F14.1°C 51.2°F10.7°C 80% 4.2 mph WSW6.8 kmh WSW 5.7 mph9.2 kmh 29.56 in1001.0 mb 0.00 in0.0 mm 0.00 in0.0 mm 0.00 in0.0 mm
04:55 PM 57.3°F14.1°C 51.2°F10.7°C 80% 4.1 mph WSW6.6 kmh WSW 7.1 mph11.4 kmh 29.56 in1001.0 mb 0.00 in0.0 mm 0.00 in0.0 mm 0.00 in0.0 mm
05:00 PM 57.3°F14.1°C 51.2°F10.7°C 80% 4.1 mph WSW6.6 kmh WSW 7.1 mph11.4 kmh 29.56 in1001.0 mb 0.00 in0.0 mm 0.00 in0.0 mm 0.00 in0.0 mm
05:05 PM 57.3°F14.1°C 51.2°F10.7°C 80% 4.6 mph WSW7.4 kmh WSW 7.1 mph11.4 kmh 29.56 in1001.0 mb 0.00 in0.0 mm 0.00 in0.0 mm 0.00 in0.0 mm
05:10 PM 57.3°F14.1°C 51.2°F10.7°C 80% 4.7 mph WSW7.6 kmh WSW 7.1 mph11.4 kmh 29.56 in1001.0 mb 0.00 in0.0 mm 0.00 in0.0 mm 0.00 in0.0 mm
05:15 PM 57.3°F14.1°C 51.2°F10.7°C 80% 4.8 mph WSW7.7 kmh WSW 7.1 mph11.4 kmh 29.56 in1001.0 mb 0.00 in0.0 mm 0.00 in0.0 mm 0.00 in0.0 mm
05:20 PM 57.1°F13.9°C 51.0°F10.6°C 80% 4.7 mph W7.6 kmh W 7.1 mph11.4 kmh 29.59 in1002.0 mb 0.00 in0.0 mm 0.00 in0.0 mm 0.00 in0.0 mm
05:25 PM 57.1°F13.9°C 51.0°F10.6°C 80% 4.6 mph WSW7.4 kmh WSW 7.1 mph11.4 kmh 29.59 in1002.0 mb 0.00 in0.0 mm 0.00 in0.0 mm 0.00 in0.0 mm
05:30 PM 56.9°F13.8°C 50.8°F10.4°C 80% 4.2 mph WSW6.8 kmh WSW 7.1 mph11.4 kmh 29.59 in1002.0 mb 0.00 in0.0 mm 0.00 in0.0 mm 0.00 in0.0 mm
05:35 PM 56.9°F13.8°C 50.8°F10.4°C 80% 3.7 mph W6.0 kmh W 5.7 mph9.2 kmh 29.59 in1002.0 mb 0.00 in0.0 mm 0.00 in0.0 mm 0.00 in0.0 mm
05:40 PM 56.9°F13.8°C 50.8°F10.4°C 80% 3.5 mph WSW5.6 kmh WSW 5.7 mph9.2 kmh 29.59 in1002.0 mb 0.00 in0.0 mm 0.00 in0.0 mm 0.00 in0.0 mm
05:45 PM 56.8°F13.8°C 50.6°F10.3°C 80% 3.3 mph WSW5.3 kmh WSW 5.7 mph9.2 kmh 29.59 in1002.0 mb 0.00 in0.0 mm 0.00 in0.0 mm 0.00 in0.0 mm
05:50 PM 56.6°F13.7°C 50.5°F10.3°C 80% 2.4 mph SW3.9 kmh SW 3.9 mph6.3 kmh 29.59 in1002.0 mb 0.00 in0.0 mm 0.00 in0.0 mm 0.00 in0.0 mm
05:55 PM 56.4°F13.6°C 50.6°F10.3°C 81% 1.5 mph S2.4 kmh S 3.3 mph5.3 kmh 29.59 in1002.0 mb 0.00 in0.0 mm 0.00 in0.0 mm 0.00 in0.0 mm
06:00 PM 56.2°F13.4°C 50.5°F10.3°C 81% 1.0 mph S1.6 kmh S 2.1 mph3.4 kmh 29.59 in1002.0 mb 0.00 in0.0 mm 0.00 in0.0 mm 0.00 in0.0 mm
06:05 PM 55.8°F13.2°C 50.1°F10.1°C 81% 0.7 mph SSE1.1 kmh SSE 2.7 mph4.3 kmh 29.59 in1002.0 mb 0.00 in0.0 mm 0.00 in0.0 mm 0.00 in0.0 mm
06:10 PM 55.5°F13.1°C 50.1°F10.1°C 82% 0.7 mph SE1.1 kmh SE 2.7 mph4.3 kmh 29.59 in1002.0 mb 0.00 in0.0 mm 0.00 in0.0 mm 0.00 in0.0 mm
06:15 PM 55.3°F12.9°C 49.9°F9.9°C 82% 0.3 mph SE0.5 kmh SE 1.2 mph1.9 kmh 29.59 in1002.0 mb 0.00 in0.0 mm 0.00 in0.0 mm 0.00 in0.0 mm
06:20 PM 55.1°F12.8°C 49.7°F9.8°C 82% 0.2 mph SE0.3 kmh SE 1.2 mph1.9 kmh 29.59 in1002.0 mb 0.00 in0.0 mm 0.00 in0.0 mm 0.00 in0.0 mm
06:25 PM 55.0°F12.8°C 49.6°F9.8°C 82% 0.2 mph SSW0.3 kmh SSW 1.5 mph2.4 kmh 29.59 in1002.0 mb 0.00 in0.0 mm 0.00 in0.0 mm 0.00 in0.0 mm
06:30 PM 54.6°F12.6°C 49.2°F9.6°C 82% 0.7 mph N1.1 kmh N 1.8 mph2.9 kmh 29.59 in1002.0 mb 0.00 in0.0 mm 0.00 in0.0 mm 0.00 in0.0 mm
06:35 PM 54.4°F12.4°C 49.4°F9.7°C 83% 0.4 mph N0.6 kmh N 1.8 mph2.9 kmh 29.62 in1003.0 mb 0.00 in0.0 mm 0.00 in0.0 mm 0.00 in0.0 mm
06:40 PM 54.4°F12.4°C 49.4°F9.7°C 83% Calm Calm -- 29.62 in1003.0 mb 0.00 in0.0 mm 0.00 in0.0 mm 0.00 in0.0 mm
06:45 PM 54.0°F12.2°C 49.0°F9.4°C 83% Calm Calm -- 29.62 in1003.0 mb 0.00 in0.0 mm 0.00 in0.0 mm 0.00 in0.0 mm
06:50 PM 54.0°F12.2°C 49.0°F9.4°C 83% Calm Calm -- 29.62 in1003.0 mb 0.00 in0.0 mm 0.00 in0.0 mm 0.00 in0.0 mm
06:55 PM 53.9°F12.2°C 49.1°F9.5°C 84% Calm Calm -- 29.62 in1003.0 mb 0.00 in0.0 mm 0.00 in0.0 mm 0.00 in0.0 mm
07:00 PM 53.7°F12.1°C 49.0°F9.4°C 84% Calm Calm -- 29.62 in1003.0 mb 0.00 in0.0 mm 0.00 in0.0 mm 0.00 in0.0 mm
07:05 PM 53.9°F12.2°C 49.1°F9.5°C 84% Calm Calm -- 29.62 in1003.0 mb 0.00 in0.0 mm 0.00 in0.0 mm 0.00 in0.0 mm
07:10 PM 53.9°F12.2°C 49.1°F9.5°C 84% 0.4 mph NE0.6 kmh NE 2.7 mph4.3 kmh 29.62 in1003.0 mb 0.00 in0.0 mm 0.00 in0.0 mm 0.00 in0.0 mm
07:15 PM 54.0°F12.2°C 49.6°F9.8°C 85% 1.6 mph SW2.6 kmh SW 4.2 mph6.8 kmh 29.62 in1003.0 mb 0.00 in0.0 mm 0.00 in0.0 mm 0.00 in0.0 mm
07:20 PM 54.2°F12.3°C 49.5°F9.7°C 84% 3.2 mph SSW5.1 kmh SSW 8.0 mph12.9 kmh 29.62 in1003.0 mb 0.00 in0.0 mm 0.00 in0.0 mm 0.00 in0.0 mm
07:25 PM 54.4°F12.4°C 50.0°F10.0°C 85% 4.7 mph S7.6 kmh S 8.0 mph12.9 kmh 29.62 in1003.0 mb 0.00 in0.0 mm 0.00 in0.0 mm 0.00 in0.0 mm
07:30 PM 54.6°F12.6°C 50.2°F10.1°C 85% 4.7 mph S7.6 kmh S 8.0 mph12.9 kmh 29.62 in1003.0 mb 0.00 in0.0 mm 0.00 in0.0 mm 0.00 in0.0 mm
07:35 PM 54.8°F12.7°C 50.3°F10.2°C 85% 4.0 mph SSW6.4 kmh SSW 5.7 mph9.2 kmh 29.62 in1003.0 mb 0.00 in0.0 mm 0.00 in0.0 mm 0.00 in0.0 mm
07:40 PM 54.8°F12.7°C 50.3°F10.2°C 85% 5.2 mph S8.4 kmh S 8.3 mph13.4 kmh 29.62 in1003.0 mb 0.00 in0.0 mm 0.00 in0.0 mm 0.00 in0.0 mm
07:45 PM 55.0°F12.8°C 50.5°F10.3°C 85% 6.2 mph S10.0 kmh S 8.3 mph13.4 kmh 29.62 in1003.0 mb 0.00 in0.0 mm 0.00 in0.0 mm 0.00 in0.0 mm
07:50 PM 55.0°F12.8°C 50.5°F10.3°C 85% 6.6 mph S10.6 kmh S 11.3 mph18.2 kmh 29.62 in1003.0 mb 0.00 in0.0 mm 0.00 in0.0 mm 0.00 in0.0 mm
07:55 PM 54.8°F12.7°C 50.3°F10.2°C 85% 6.9 mph SSW11.1 kmh SSW 11.3 mph18.2 kmh 29.62 in1003.0 mb 0.00 in0.0 mm 0.00 in0.0 mm 0.00 in0.0 mm
08:00 PM 54.8°F12.7°C 50.3°F10.2°C 85% 6.3 mph SSW10.1 kmh SSW 9.5 mph15.3 kmh 29.62 in1003.0 mb 0.00 in0.0 mm 0.00 in0.0 mm 0.00 in0.0 mm
08:05 PM 54.8°F12.7°C 50.3°F10.2°C 85% 6.4 mph S10.3 kmh S 9.8 mph15.8 kmh 29.62 in1003.0 mb 0.00 in0.0 mm 0.00 in0.0 mm 0.00 in0.0 mm
08:10 PM 54.8°F12.7°C 50.3°F10.2°C 85% 6.3 mph S10.1 kmh S 9.8 mph15.8 kmh 29.62 in1003.0 mb 0.00 in0.0 mm 0.00 in0.0 mm 0.00 in0.0 mm
08:15 PM 54.8°F12.7°C 50.3°F10.2°C 85% 5.1 mph S8.2 kmh S 7.1 mph11.4 kmh 29.62 in1003.0 mb 0.00 in0.0 mm 0.00 in0.0 mm 0.00 in0.0 mm
08:20 PM 55.0°F12.8°C 50.5°F10.3°C 85% 5.6 mph SSW9.0 kmh SSW 9.8 mph15.8 kmh 29.62 in1003.0 mb 0.00 in0.0 mm 0.00 in0.0 mm 0.00 in0.0 mm
08:25 PM 55.1°F12.8°C 50.7°F10.4°C 85% 6.3 mph SW10.1 kmh SW 9.8 mph15.8 kmh 29.62 in1003.0 mb 0.00 in0.0 mm 0.00 in0.0 mm 0.00 in0.0 mm
08:30 PM 55.3°F12.9°C 50.9°F10.5°C 85% 5.9 mph SSW9.5 kmh SSW 9.8 mph15.8 kmh 29.62 in1003.0 mb 0.00 in0.0 mm 0.00 in0.0 mm 0.00 in0.0 mm
08:35 PM 55.3°F12.9°C 50.9°F10.5°C 85% 5.0 mph S8.0 kmh S 7.4 mph11.9 kmh 29.62 in1003.0 mb 0.00 in0.0 mm 0.00 in0.0 mm 0.00 in0.0 mm
08:40 PM 55.1°F12.8°C 50.7°F10.4°C 85% 4.9 mph S7.9 kmh S 7.4 mph11.9 kmh 29.62 in1003.0 mb 0.00 in0.0 mm 0.00 in0.0 mm 0.00 in0.0 mm
08:45 PM 55.1°F12.8°C 50.7°F10.4°C 85% 4.3 mph SSW6.9 kmh SSW 6.5 mph10.5 kmh 29.62 in1003.0 mb 0.00 in0.0 mm 0.00 in0.0 mm 0.00 in0.0 mm
08:50 PM 55.1°F12.8°C 50.7°F10.4°C 85% 4.9 mph SSW7.9 kmh SSW 7.1 mph11.4 kmh 29.62 in1003.0 mb 0.00 in0.0 mm 0.00 in0.0 mm 0.00 in0.0 mm
08:55 PM 55.1°F12.8°C 50.7°F10.4°C 85% 5.5 mph S8.9 kmh S 7.1 mph11.4 kmh 29.62 in1003.0 mb 0.00 in0.0 mm 0.00 in0.0 mm 0.00 in0.0 mm
09:00 PM 55.3°F12.9°C 50.9°F10.5°C 85% 5.7 mph S9.2 kmh S 8.3 mph13.4 kmh 29.62 in1003.0 mb 0.00 in0.0 mm 0.00 in0.0 mm 0.00 in0.0 mm
09:05 PM 55.3°F12.9°C 51.2°F10.7°C 86% 6.5 mph SSW10.5 kmh SSW 8.3 mph13.4 kmh 29.62 in1003.0 mb 0.00 in0.0 mm 0.00 in0.0 mm 0.00 in0.0 mm
09:10 PM 55.3°F12.9°C 51.2°F10.7°C 86% 6.0 mph SSW9.7 kmh SSW 8.3 mph13.4 kmh 29.62 in1003.0 mb 0.00 in0.0 mm 0.00 in0.0 mm 0.00 in0.0 mm
09:15 PM 55.3°F12.9°C 51.2°F10.7°C 86% 5.7 mph SSW9.2 kmh SSW 8.3 mph13.4 kmh 29.62 in1003.0 mb 0.00 in0.0 mm 0.00 in0.0 mm 0.00 in0.0 mm
09:20 PM 55.5°F13.1°C 51.1°F10.6°C 85% 6.2 mph S10.0 kmh S 7.7 mph12.4 kmh 29.62 in1003.0 mb 0.00 in0.0 mm 0.00 in0.0 mm 0.00 in0.0 mm
09:25 PM 55.5°F13.1°C 51.1°F10.6°C 85% 7.6 mph S12.2 kmh S 9.8 mph15.8 kmh 29.62 in1003.0 mb 0.00 in0.0 mm 0.00 in0.0 mm 0.00 in0.0 mm
09:30 PM 55.5°F13.1°C 51.1°F10.6°C 85% 7.7 mph S12.4 kmh S 9.8 mph15.8 kmh 29.62 in1003.0 mb 0.00 in0.0 mm 0.00 in0.0 mm 0.00 in0.0 mm
09:35 PM 55.5°F13.1°C 51.1°F10.6°C 85% 7.0 mph S11.3 kmh S 9.2 mph14.8 kmh 29.62 in1003.0 mb 0.00 in0.0 mm 0.00 in0.0 mm 0.00 in0.0 mm
09:40 PM 55.5°F13.1°C 51.1°F10.6°C 85% 6.3 mph S10.1 kmh S 8.0 mph12.9 kmh 29.62 in1003.0 mb 0.00 in0.0 mm 0.00 in0.0 mm 0.00 in0.0 mm
09:45 PM 55.5°F13.1°C 51.1°F10.6°C 85% 7.3 mph S11.7 kmh S 9.5 mph15.3 kmh 29.62 in1003.0 mb 0.00 in0.0 mm 0.00 in0.0 mm 0.00 in0.0 mm
09:50 PM 55.5°F13.1°C 51.4°F10.8°C 86% 9.0 mph SSW14.5 kmh SSW 11.9 mph19.2 kmh 29.65 in1004.1 mb 0.00 in0.0 mm 0.00 in0.0 mm 0.00 in0.0 mm
09:55 PM 55.5°F13.1°C 51.4°F10.8°C 86% 8.3 mph SSW13.4 kmh SSW 11.9 mph19.2 kmh 29.65 in1004.1 mb 0.00 in0.0 mm 0.00 in0.0 mm 0.00 in0.0 mm
10:00 PM 55.5°F13.1°C 51.4°F10.8°C 86% 6.8 mph SSW10.9 kmh SSW 11.6 mph18.7 kmh 29.65 in1004.1 mb 0.00 in0.0 mm 0.00 in0.0 mm 0.00 in0.0 mm
10:05 PM 55.3°F12.9°C 51.2°F10.7°C 86% 6.5 mph SSW10.5 kmh SSW 8.0 mph12.9 kmh 29.65 in1004.1 mb 0.00 in0.0 mm 0.00 in0.0 mm 0.00 in0.0 mm
10:10 PM 55.3°F12.9°C 51.2°F10.7°C 86% 6.9 mph S11.1 kmh S 8.0 mph12.9 kmh 29.65 in1004.1 mb 0.00 in0.0 mm 0.00 in0.0 mm 0.00 in0.0 mm
10:15 PM 55.1°F12.8°C 51.0°F10.6°C 86% 6.7 mph S10.8 kmh S 9.5 mph15.3 kmh 29.65 in1004.1 mb 0.00 in0.0 mm 0.00 in0.0 mm 0.00 in0.0 mm
10:20 PM 55.0°F12.8°C 50.8°F10.4°C 86% 6.0 mph S9.7 kmh S 9.5 mph15.3 kmh 29.65 in1004.1 mb 0.00 in0.0 mm 0.00 in0.0 mm 0.00 in0.0 mm
10:25 PM 54.8°F12.7°C 50.7°F10.4°C 86% 5.4 mph S8.7 kmh S 8.0 mph12.9 kmh 29.65 in1004.1 mb 0.00 in0.0 mm 0.00 in0.0 mm 0.00 in0.0 mm
10:30 PM 54.8°F12.7°C 50.7°F10.4°C 86% 6.7 mph S10.8 kmh S 8.6 mph13.8 kmh 29.65 in1004.1 mb 0.00 in0.0 mm 0.00 in0.0 mm 0.00 in0.0 mm
10:35 PM 54.8°F12.7°C 50.7°F10.4°C 86% 7.5 mph S12.1 kmh S 8.6 mph13.8 kmh 29.65 in1004.1 mb 0.00 in0.0 mm 0.00 in0.0 mm 0.00 in0.0 mm
10:40 PM 54.8°F12.7°C 50.7°F10.4°C 86% 8.0 mph SSW12.9 kmh SSW 11.6 mph18.7 kmh 29.65 in1004.1 mb 0.00 in0.0 mm 0.00 in0.0 mm 0.00 in0.0 mm
10:45 PM 54.8°F12.7°C 50.7°F10.4°C 86% 7.6 mph SSW12.2 kmh SSW 11.6 mph18.7 kmh 29.65 in1004.1 mb 0.00 in0.0 mm 0.00 in0.0 mm 0.00 in0.0 mm
10:50 PM 54.8°F12.7°C 50.7°F10.4°C 86% 9.2 mph S14.8 kmh S 16.4 mph26.4 kmh 29.65 in1004.1 mb 0.00 in0.0 mm 0.00 in0.0 mm 0.00 in0.0 mm
10:55 PM 54.8°F12.7°C 50.7°F10.4°C 86% 10.8 mph S17.4 kmh S 16.4 mph26.4 kmh 29.65 in1004.1 mb 0.00 in0.0 mm 0.00 in0.0 mm 0.00 in0.0 mm
11:00 PM 54.8°F12.7°C 50.7°F10.4°C 86% 9.6 mph S15.4 kmh S 14.0 mph22.5 kmh 29.65 in1004.1 mb 0.00 in0.0 mm 0.00 in0.0 mm 0.00 in0.0 mm
11:05 PM 54.8°F12.7°C 50.7°F10.4°C 86% 8.9 mph SSW14.3 kmh SSW 14.0 mph22.5 kmh 29.65 in1004.1 mb 0.00 in0.0 mm 0.00 in0.0 mm 0.00 in0.0 mm
11:10 PM 54.8°F12.7°C 50.3°F10.2°C 85% 8.6 mph SSW13.8 kmh SSW 14.0 mph22.5 kmh 29.65 in1004.1 mb 0.00 in0.0 mm 0.00 in0.0 mm 0.00 in0.0 mm
11:15 PM 54.8°F12.7°C 50.3°F10.2°C 85% 8.4 mph SSW13.5 kmh SSW 16.1 mph25.9 kmh 29.65 in1004.1 mb 0.00 in0.0 mm 0.00 in0.0 mm 0.00 in0.0 mm
11:20 PM 55.0°F12.8°C 50.5°F10.3°C 85% 8.3 mph S13.4 kmh S 16.1 mph25.9 kmh 29.65 in1004.1 mb 0.00 in0.0 mm 0.00 in0.0 mm 0.00 in0.0 mm
11:25 PM 54.8°F12.7°C 50.3°F10.2°C 85% 6.7 mph S10.8 kmh S 10.1 mph16.3 kmh 29.65 in1004.1 mb 0.00 in0.0 mm 0.00 in0.0 mm 0.00 in0.0 mm
11:30 PM 54.8°F12.7°C 50.3°F10.2°C 85% 6.1 mph S9.8 kmh S 9.8 mph15.8 kmh 29.65 in1004.1 mb 0.00 in0.0 mm 0.00 in0.0 mm 0.00 in0.0 mm
11:35 PM 54.8°F12.7°C 50.3°F10.2°C 85% 7.2 mph SSW11.6 kmh SSW 10.4 mph16.7 kmh 29.62 in1003.0 mb 0.00 in0.0 mm 0.00 in0.0 mm 0.00 in0.0 mm
11:40 PM 54.8°F12.7°C 50.3°F10.2°C 85% 6.5 mph SSW10.5 kmh SSW 10.4 mph16.7 kmh 29.62 in1003.0 mb 0.00 in0.0 mm 0.00 in0.0 mm 0.00 in0.0 mm
11:45 PM 54.8°F12.7°C 50.3°F10.2°C 85% 6.2 mph SSW10.0 kmh SSW 10.1 mph16.3 kmh 29.62 in1003.0 mb 0.00 in0.0 mm 0.00 in0.0 mm 0.00 in0.0 mm
11:50 PM 54.8°F12.7°C 50.3°F10.2°C 85% 9.0 mph SSW14.5 kmh SSW 15.8 mph25.4 kmh 29.65 in1004.1 mb 0.00 in0.0 mm 0.00 in0.0 mm 0.00 in0.0 mm
11:55 PM 54.8°F12.7°C 50.3°F10.2°C 85% 9.5 mph SSW15.3 kmh SSW 15.8 mph25.4 kmh 29.65 in1004.1 mb 0.00 in0.0 mm 0.00 in0.0 mm 0.00 in0.0 mm